sensor_id;sensor_type;location;lat;lon;timestamp;temperature;humidity
36450;DHT22;22475;51.390;7.180;2023-09-19T00:00:30;20.60;94.40
36450;DHT22;22475;51.390;7.180;2023-09-19T00:02:59;20.60;94.40
36450;DHT22;22475;51.390;7.180;2023-09-19T00:05:28;20.60;94.40
36450;DHT22;22475;51.390;7.180;2023-09-19T00:07:57;20.60;94.40
36450;DHT22;22475;51.390;7.180;2023-09-19T00:10:25;20.60;94.50
36450;DHT22;22475;51.390;7.180;2023-09-19T00:12:52;20.50;94.40
36450;DHT22;22475;51.390;7.180;2023-09-19T00:15:21;20.60;94.50
36450;DHT22;22475;51.390;7.180;2023-09-19T00:17:48;20.50;94.40
36450;DHT22;22475;51.390;7.180;2023-09-19T00:20:18;20.50;94.40
36450;DHT22;22475;51.390;7.180;2023-09-19T00:22:46;20.50;94.50
36450;DHT22;22475;51.390;7.180;2023-09-19T00:25:13;20.50;94.40
36450;DHT22;22475;51.390;7.180;2023-09-19T00:27:41;20.50;94.40
36450;DHT22;22475;51.390;7.180;2023-09-19T00:30:09;20.50;94.50
36450;DHT22;22475;51.390;7.180;2023-09-19T00:32:40;20.50;94.40
36450;DHT22;22475;51.390;7.180;2023-09-19T00:35:08;20.50;94.40
36450;DHT22;22475;51.390;7.180;2023-09-19T00:37:36;20.50;94.30
36450;DHT22;22475;51.390;7.180;2023-09-19T00:40:04;20.50;94.30
36450;DHT22;22475;51.390;7.180;2023-09-19T00:42:32;20.50;94.20
36450;DHT22;22475;51.390;7.180;2023-09-19T00:44:59;20.50;94.30
36450;DHT22;22475;51.390;7.180;2023-09-19T00:47:29;20.50;94.20
36450;DHT22;22475;51.390;7.180;2023-09-19T00:49:56;20.50;94.20
36450;DHT22;22475;51.390;7.180;2023-09-19T00:52:23;20.50;94.10
36450;DHT22;22475;51.390;7.180;2023-09-19T00:54:51;20.50;94.10
36450;DHT22;22475;51.390;7.180;2023-09-19T00:57:19;20.50;94.10
36450;DHT22;22475;51.390;7.180;2023-09-19T00:59:49;20.50;94.20
36450;DHT22;22475;51.390;7.180;2023-09-19T01:02:16;20.50;94.10
36450;DHT22;22475;51.390;7.180;2023-09-19T01:04:44;20.40;94.10
36450;DHT22;22475;51.390;7.180;2023-09-19T01:07:11;20.40;94.10
36450;DHT22;22475;51.390;7.180;2023-09-19T01:09:40;20.40;94.10
36450;DHT22;22475;51.390;7.180;2023-09-19T01:12:08;20.40;94.00
36450;DHT22;22475;51.390;7.180;2023-09-19T01:14:54;20.40;94.00
36450;DHT22;22475;51.390;7.180;2023-09-19T01:17:26;20.40;94.00
36450;DHT22;22475;51.390;7.180;2023-09-19T01:20:11;20.40;94.00
36450;DHT22;22475;51.390;7.180;2023-09-19T01:22:48;20.40;93.90
36450;DHT22;22475;51.390;7.180;2023-09-19T01:26:06;20.40;93.90
36450;DHT22;22475;51.390;7.180;2023-09-19T01:28:45;20.40;94.00
36450;DHT22;22475;51.390;7.180;2023-09-19T01:31:21;20.40;94.00
36450;DHT22;22475;51.390;7.180;2023-09-19T01:33:57;20.40;94.00
36450;DHT22;22475;51.390;7.180;2023-09-19T01:36:25;20.30;94.00
36450;DHT22;22475;51.390;7.180;2023-09-19T01:38:53;20.30;94.00
36450;DHT22;22475;51.390;7.180;2023-09-19T01:41:26;20.30;94.00
36450;DHT22;22475;51.390;7.180;2023-09-19T01:43:55;20.40;94.00
36450;DHT22;22475;51.390;7.180;2023-09-19T01:46:25;20.40;94.00
36450;DHT22;22475;51.390;7.180;2023-09-19T01:49:05;20.30;93.90
36450;DHT22;22475;51.390;7.180;2023-09-19T01:51:40;20.30;93.90
36450;DHT22;22475;51.390;7.180;2023-09-19T01:54:11;20.40;93.90
36450;DHT22;22475;51.390;7.180;2023-09-19T01:56:45;20.30;93.90
36450;DHT22;22475;51.390;7.180;2023-09-19T01:59:17;20.30;93.90
36450;DHT22;22475;51.390;7.180;2023-09-19T02:01:49;20.30;93.90
36450;DHT22;22475;51.390;7.180;2023-09-19T02:04:18;20.30;93.90
36450;DHT22;22475;51.390;7.180;2023-09-19T02:06:44;20.30;93.90
36450;DHT22;22475;51.390;7.180;2023-09-19T02:09:13;20.30;93.80
36450;DHT22;22475;51.390;7.180;2023-09-19T02:11:40;20.30;93.80
36450;DHT22;22475;51.390;7.180;2023-09-19T02:14:07;20.30;93.80
36450;DHT22;22475;51.390;7.180;2023-09-19T02:16:35;20.30;93.80
36450;DHT22;22475;51.390;7.180;2023-09-19T02:19:04;20.30;93.80
36450;DHT22;22475;51.390;7.180;2023-09-19T02:21:31;20.20;93.80
36450;DHT22;22475;51.390;7.180;2023-09-19T02:23:58;20.30;93.80
36450;DHT22;22475;51.390;7.180;2023-09-19T02:26:25;20.20;93.80
36450;DHT22;22475;51.390;7.180;2023-09-19T02:28:52;20.30;93.90
36450;DHT22;22475;51.390;7.180;2023-09-19T02:31:19;20.30;93.80
36450;DHT22;22475;51.390;7.180;2023-09-19T02:33:46;20.20;93.80
36450;DHT22;22475;51.390;7.180;2023-09-19T02:36:14;20.20;93.80
36450;DHT22;22475;51.390;7.180;2023-09-19T02:38:42;20.20;93.80
36450;DHT22;22475;51.390;7.180;2023-09-19T02:41:09;20.30;93.80
36450;DHT22;22475;51.390;7.180;2023-09-19T02:43:37;20.20;93.70
36450;DHT22;22475;51.390;7.180;2023-09-19T02:46:04;20.20;93.80
36450;DHT22;22475;51.390;7.180;2023-09-19T02:48:31;20.20;93.70
36450;DHT22;22475;51.390;7.180;2023-09-19T02:51:00;20.20;93.70
36450;DHT22;22475;51.390;7.180;2023-09-19T02:53:28;20.20;93.70
36450;DHT22;22475;51.390;7.180;2023-09-19T02:55:56;20.20;93.70
36450;DHT22;22475;51.390;7.180;2023-09-19T02:58:24;20.20;93.70
36450;DHT22;22475;51.390;7.180;2023-09-19T03:00:53;20.20;93.70
36450;DHT22;22475;51.390;7.180;2023-09-19T03:03:20;20.20;93.70
36450;DHT22;22475;51.390;7.180;2023-09-19T03:05:48;20.20;93.60
36450;DHT22;22475;51.390;7.180;2023-09-19T03:08:16;20.20;93.60
36450;DHT22;22475;51.390;7.180;2023-09-19T03:10:47;20.20;93.60
36450;DHT22;22475;51.390;7.180;2023-09-19T03:13:14;20.20;93.60
36450;DHT22;22475;51.390;7.180;2023-09-19T03:15:41;20.10;93.60
36450;DHT22;22475;51.390;7.180;2023-09-19T03:18:09;20.20;93.60
36450;DHT22;22475;51.390;7.180;2023-09-19T03:20:36;20.20;93.50
36450;DHT22;22475;51.390;7.180;2023-09-19T03:23:04;20.20;93.50
36450;DHT22;22475;51.390;7.180;2023-09-19T03:25:33;20.10;93.40
36450;DHT22;22475;51.390;7.180;2023-09-19T03:28:01;20.10;93.30
36450;DHT22;22475;51.390;7.180;2023-09-19T03:30:31;20.10;93.20
36450;DHT22;22475;51.390;7.180;2023-09-19T03:32:59;20.10;93.20
36450;DHT22;22475;51.390;7.180;2023-09-19T03:35:26;20.10;93.20
36450;DHT22;22475;51.390;7.180;2023-09-19T03:37:53;20.10;93.10
36450;DHT22;22475;51.390;7.180;2023-09-19T03:40:19;20.10;93.10
36450;DHT22;22475;51.390;7.180;2023-09-19T03:42:47;20.10;93.10
36450;DHT22;22475;51.390;7.180;2023-09-19T03:45:15;20.10;93.20
36450;DHT22;22475;51.390;7.180;2023-09-19T03:47:43;20.10;93.30
36450;DHT22;22475;51.390;7.180;2023-09-19T03:50:12;20.10;93.30
36450;DHT22;22475;51.390;7.180;2023-09-19T03:52:41;20.10;93.20
36450;DHT22;22475;51.390;7.180;2023-09-19T03:55:08;20.10;93.20
36450;DHT22;22475;51.390;7.180;2023-09-19T03:57:35;20.00;93.10
36450;DHT22;22475;51.390;7.180;2023-09-19T04:00:02;20.10;93.10
36450;DHT22;22475;51.390;7.180;2023-09-19T04:02:30;20.00;93.10
36450;DHT22;22475;51.390;7.180;2023-09-19T04:04:58;20.00;93.10
36450;DHT22;22475;51.390;7.180;2023-09-19T04:07:25;20.00;93.10
36450;DHT22;22475;51.390;7.180;2023-09-19T04:09:54;20.00;93.10
36450;DHT22;22475;51.390;7.180;2023-09-19T04:12:21;20.00;93.10
36450;DHT22;22475;51.390;7.180;2023-09-19T04:14:47;20.00;93.10
36450;DHT22;22475;51.390;7.180;2023-09-19T04:17:15;20.00;93.00
36450;DHT22;22475;51.390;7.180;2023-09-19T04:19:43;20.00;93.00
36450;DHT22;22475;51.390;7.180;2023-09-19T04:22:11;20.00;93.00
36450;DHT22;22475;51.390;7.180;2023-09-19T04:24:38;20.00;93.00
36450;DHT22;22475;51.390;7.180;2023-09-19T04:27:05;20.00;93.00
36450;DHT22;22475;51.390;7.180;2023-09-19T04:29:31;20.00;93.00
36450;DHT22;22475;51.390;7.180;2023-09-19T04:31:59;19.90;93.00
36450;DHT22;22475;51.390;7.180;2023-09-19T04:34:25;19.90;93.00
36450;DHT22;22475;51.390;7.180;2023-09-19T04:36:54;19.90;93.00
36450;DHT22;22475;51.390;7.180;2023-09-19T04:39:22;19.90;93.10
36450;DHT22;22475;51.390;7.180;2023-09-19T04:41:51;19.90;93.10
36450;DHT22;22475;51.390;7.180;2023-09-19T04:44:18;19.90;93.10
36450;DHT22;22475;51.390;7.180;2023-09-19T04:46:45;19.90;93.10
36450;DHT22;22475;51.390;7.180;2023-09-19T04:49:12;19.90;93.10
36450;DHT22;22475;51.390;7.180;2023-09-19T04:51:39;19.90;93.10
36450;DHT22;22475;51.390;7.180;2023-09-19T04:54:07;19.90;93.10
36450;DHT22;22475;51.390;7.180;2023-09-19T04:56:34;19.90;93.20
36450;DHT22;22475;51.390;7.180;2023-09-19T04:59:00;19.90;93.20
36450;DHT22;22475;51.390;7.180;2023-09-19T05:01:28;19.90;93.20
36450;DHT22;22475;51.390;7.180;2023-09-19T05:03:54;19.90;93.20
36450;DHT22;22475;51.390;7.180;2023-09-19T05:06:21;19.90;93.20
36450;DHT22;22475;51.390;7.180;2023-09-19T05:08:48;19.90;93.20
36450;DHT22;22475;51.390;7.180;2023-09-19T05:11:18;19.90;93.20
36450;DHT22;22475;51.390;7.180;2023-09-19T05:13:45;19.90;93.20
36450;DHT22;22475;51.390;7.180;2023-09-19T05:16:12;19.90;93.20
36450;DHT22;22475;51.390;7.180;2023-09-19T05:18:39;19.90;93.20
36450;DHT22;22475;51.390;7.180;2023-09-19T05:21:06;19.90;93.20
36450;DHT22;22475;51.390;7.180;2023-09-19T05:23:33;19.90;93.10
36450;DHT22;22475;51.390;7.180;2023-09-19T05:26:00;19.90;93.20
36450;DHT22;22475;51.390;7.180;2023-09-19T05:28:28;19.90;93.20
36450;DHT22;22475;51.390;7.180;2023-09-19T05:30:55;19.80;93.10
36450;DHT22;22475;51.390;7.180;2023-09-19T05:33:22;19.80;93.20
36450;DHT22;22475;51.390;7.180;2023-09-19T05:35:48;19.80;93.20
36450;DHT22;22475;51.390;7.180;2023-09-19T05:38:15;19.80;93.30
36450;DHT22;22475;51.390;7.180;2023-09-19T05:40:45;19.80;93.20
36450;DHT22;22475;51.390;7.180;2023-09-19T05:43:11;19.80;93.30
36450;DHT22;22475;51.390;7.180;2023-09-19T05:45:40;19.80;93.20
36450;DHT22;22475;51.390;7.180;2023-09-19T05:48:09;19.80;93.20
36450;DHT22;22475;51.390;7.180;2023-09-19T05:50:37;19.80;93.20
36450;DHT22;22475;51.390;7.180;2023-09-19T05:53:04;19.80;93.20
36450;DHT22;22475;51.390;7.180;2023-09-19T05:55:31;19.80;93.30
36450;DHT22;22475;51.390;7.180;2023-09-19T05:57:57;19.80;93.30
36450;DHT22;22475;51.390;7.180;2023-09-19T06:00:25;19.80;93.30
36450;DHT22;22475;51.390;7.180;2023-09-19T06:02:55;19.80;93.20
36450;DHT22;22475;51.390;7.180;2023-09-19T06:05:22;19.80;93.20
36450;DHT22;22475;51.390;7.180;2023-09-19T06:07:49;19.80;93.30
36450;DHT22;22475;51.390;7.180;2023-09-19T06:10:18;19.80;93.30
36450;DHT22;22475;51.390;7.180;2023-09-19T06:12:46;19.80;93.30
36450;DHT22;22475;51.390;7.180;2023-09-19T06:15:14;19.80;93.30
36450;DHT22;22475;51.390;7.180;2023-09-19T06:17:46;19.80;93.30
36450;DHT22;22475;51.390;7.180;2023-09-19T06:20:14;19.90;93.40
36450;DHT22;22475;51.390;7.180;2023-09-19T06:22:42;19.90;93.30
36450;DHT22;22475;51.390;7.180;2023-09-19T06:25:10;19.80;93.30
36450;DHT22;22475;51.390;7.180;2023-09-19T06:27:38;19.80;93.30
36450;DHT22;22475;51.390;7.180;2023-09-19T06:30:09;19.80;93.30
36450;DHT22;22475;51.390;7.180;2023-09-19T06:32:36;19.80;93.30
36450;DHT22;22475;51.390;7.180;2023-09-19T06:35:04;19.80;93.30
36450;DHT22;22475;51.390;7.180;2023-09-19T06:37:34;19.80;93.20
36450;DHT22;22475;51.390;7.180;2023-09-19T06:40:01;19.80;93.20
36450;DHT22;22475;51.390;7.180;2023-09-19T06:42:28;19.80;93.20
36450;DHT22;22475;51.390;7.180;2023-09-19T06:44:55;19.80;93.30
36450;DHT22;22475;51.390;7.180;2023-09-19T06:47:21;19.80;93.30
36450;DHT22;22475;51.390;7.180;2023-09-19T06:49:51;19.80;93.30
36450;DHT22;22475;51.390;7.180;2023-09-19T06:52:18;19.80;93.30
36450;DHT22;22475;51.390;7.180;2023-09-19T06:54:49;19.80;93.30
36450;DHT22;22475;51.390;7.180;2023-09-19T06:57:17;19.80;93.30
36450;DHT22;22475;51.390;7.180;2023-09-19T06:59:45;19.80;93.30
36450;DHT22;22475;51.390;7.180;2023-09-19T07:02:12;19.80;93.30
36450;DHT22;22475;51.390;7.180;2023-09-19T07:04:39;19.80;93.30
36450;DHT22;22475;51.390;7.180;2023-09-19T07:07:06;19.80;93.30
36450;DHT22;22475;51.390;7.180;2023-09-19T07:09:34;19.80;93.30
36450;DHT22;22475;51.390;7.180;2023-09-19T07:12:02;19.80;93.30
36450;DHT22;22475;51.390;7.180;2023-09-19T07:14:29;19.80;93.30
36450;DHT22;22475;51.390;7.180;2023-09-19T07:16:56;19.80;93.30
36450;DHT22;22475;51.390;7.180;2023-09-19T07:19:25;19.80;93.30
36450;DHT22;22475;51.390;7.180;2023-09-19T07:21:54;19.80;93.30
36450;DHT22;22475;51.390;7.180;2023-09-19T07:24:20;19.80;93.30
36450;DHT22;22475;51.390;7.180;2023-09-19T07:26:49;19.80;93.30
36450;DHT22;22475;51.390;7.180;2023-09-19T07:29:17;19.80;93.30
36450;DHT22;22475;51.390;7.180;2023-09-19T07:31:44;19.80;93.20
36450;DHT22;22475;51.390;7.180;2023-09-19T07:34:11;19.80;93.30
36450;DHT22;22475;51.390;7.180;2023-09-19T07:36:39;19.80;93.30
36450;DHT22;22475;51.390;7.180;2023-09-19T07:39:07;19.80;93.30
36450;DHT22;22475;51.390;7.180;2023-09-19T07:41:34;19.80;93.40
36450;DHT22;22475;51.390;7.180;2023-09-19T07:44:00;19.90;93.40
36450;DHT22;22475;51.390;7.180;2023-09-19T07:46:28;19.80;93.40
36450;DHT22;22475;51.390;7.180;2023-09-19T07:48:56;19.80;93.40
36450;DHT22;22475;51.390;7.180;2023-09-19T07:51:23;19.90;93.50
36450;DHT22;22475;51.390;7.180;2023-09-19T07:53:50;19.90;93.50
36450;DHT22;22475;51.390;7.180;2023-09-19T07:56:18;19.90;93.50
36450;DHT22;22475;51.390;7.180;2023-09-19T07:58:45;19.90;93.50
36450;DHT22;22475;51.390;7.180;2023-09-19T08:01:12;19.90;93.50
36450;DHT22;22475;51.390;7.180;2023-09-19T08:03:42;19.90;93.60
36450;DHT22;22475;51.390;7.180;2023-09-19T08:06:10;19.90;93.50
36450;DHT22;22475;51.390;7.180;2023-09-19T08:08:39;19.90;93.60
36450;DHT22;22475;51.390;7.180;2023-09-19T08:11:07;19.90;93.60
36450;DHT22;22475;51.390;7.180;2023-09-19T08:13:37;19.90;93.60
36450;DHT22;22475;51.390;7.180;2023-09-19T08:16:06;19.90;93.60
36450;DHT22;22475;51.390;7.180;2023-09-19T08:18:33;19.90;93.50
36450;DHT22;22475;51.390;7.180;2023-09-19T08:21:01;19.90;93.50
36450;DHT22;22475;51.390;7.180;2023-09-19T08:23:28;19.90;93.40
36450;DHT22;22475;51.390;7.180;2023-09-19T08:25:57;19.90;93.50
36450;DHT22;22475;51.390;7.180;2023-09-19T08:28:28;19.90;93.50
36450;DHT22;22475;51.390;7.180;2023-09-19T08:30:55;19.90;93.50
36450;DHT22;22475;51.390;7.180;2023-09-19T08:33:23;19.90;93.50
36450;DHT22;22475;51.390;7.180;2023-09-19T08:35:50;19.90;93.40
36450;DHT22;22475;51.390;7.180;2023-09-19T08:38:18;19.90;93.50
36450;DHT22;22475;51.390;7.180;2023-09-19T08:40:45;19.90;93.50
36450;DHT22;22475;51.390;7.180;2023-09-19T08:43:12;19.90;93.50
36450;DHT22;22475;51.390;7.180;2023-09-19T08:45:39;19.90;93.50
36450;DHT22;22475;51.390;7.180;2023-09-19T08:48:17;19.90;93.60
36450;DHT22;22475;51.390;7.180;2023-09-19T08:50:49;19.90;93.60
36450;DHT22;22475;51.390;7.180;2023-09-19T08:53:26;19.90;93.60
36450;DHT22;22475;51.390;7.180;2023-09-19T08:55:55;20.00;93.70
36450;DHT22;22475;51.390;7.180;2023-09-19T08:58:26;19.90;93.70
36450;DHT22;22475;51.390;7.180;2023-09-19T09:00:55;20.00;93.80
36450;DHT22;22475;51.390;7.180;2023-09-19T09:03:23;20.00;93.90
36450;DHT22;22475;51.390;7.180;2023-09-19T09:05:50;20.00;94.00
36450;DHT22;22475;51.390;7.180;2023-09-19T09:08:19;20.10;94.10
36450;DHT22;22475;51.390;7.180;2023-09-19T09:10:49;20.10;94.20
36450;DHT22;22475;51.390;7.180;2023-09-19T09:13:17;20.00;94.20
36450;DHT22;22475;51.390;7.180;2023-09-19T09:15:44;20.10;94.30
36450;DHT22;22475;51.390;7.180;2023-09-19T09:18:11;20.10;94.30
36450;DHT22;22475;51.390;7.180;2023-09-19T09:20:38;20.10;94.40
36450;DHT22;22475;51.390;7.180;2023-09-19T09:23:05;20.10;94.40
36450;DHT22;22475;51.390;7.180;2023-09-19T09:25:50;20.10;94.40
36450;DHT22;22475;51.390;7.180;2023-09-19T09:28:21;20.10;94.50
36450;DHT22;22475;51.390;7.180;2023-09-19T09:30:49;20.10;94.50
36450;DHT22;22475;51.390;7.180;2023-09-19T09:33:17;20.10;94.50
36450;DHT22;22475;51.390;7.180;2023-09-19T09:35:51;20.10;94.60
36450;DHT22;22475;51.390;7.180;2023-09-19T09:38:22;20.20;94.60
36450;DHT22;22475;51.390;7.180;2023-09-19T09:40:55;20.10;94.50
36450;DHT22;22475;51.390;7.180;2023-09-19T09:43:31;20.10;94.50
36450;DHT22;22475;51.390;7.180;2023-09-19T09:46:12;20.20;94.40
36450;DHT22;22475;51.390;7.180;2023-09-19T09:48:59;20.20;94.40
36450;DHT22;22475;51.390;7.180;2023-09-19T09:51:42;20.20;94.40
36450;DHT22;22475;51.390;7.180;2023-09-19T09:54:13;20.20;94.30
36450;DHT22;22475;51.390;7.180;2023-09-19T09:56:56;20.20;94.40
36450;DHT22;22475;51.390;7.180;2023-09-19T09:59:48;20.20;94.40
36450;DHT22;22475;51.390;7.180;2023-09-19T10:02:17;20.20;94.50
36450;DHT22;22475;51.390;7.180;2023-09-19T10:04:50;20.20;94.50
36450;DHT22;22475;51.390;7.180;2023-09-19T10:07:35;20.20;94.50
36450;DHT22;22475;51.390;7.180;2023-09-19T10:10:07;20.20;94.50
36450;DHT22;22475;51.390;7.180;2023-09-19T10:12:47;20.20;94.40
36450;DHT22;22475;51.390;7.180;2023-09-19T10:15:15;20.30;94.30
36450;DHT22;22475;51.390;7.180;2023-09-19T10:17:44;20.20;94.20
36450;DHT22;22475;51.390;7.180;2023-09-19T10:20:16;20.30;94.20
36450;DHT22;22475;51.390;7.180;2023-09-19T10:22:59;20.20;94.10
36450;DHT22;22475;51.390;7.180;2023-09-19T10:25:28;20.30;94.20
36450;DHT22;22475;51.390;7.180;2023-09-19T10:27:57;20.20;94.20
36450;DHT22;22475;51.390;7.180;2023-09-19T10:30:29;20.30;94.20
36450;DHT22;22475;51.390;7.180;2023-09-19T10:33:01;20.30;94.10
36450;DHT22;22475;51.390;7.180;2023-09-19T10:35:28;20.30;94.00
36450;DHT22;22475;51.390;7.180;2023-09-19T10:37:58;20.30;93.90
36450;DHT22;22475;51.390;7.180;2023-09-19T10:40:26;20.30;93.90
36450;DHT22;22475;51.390;7.180;2023-09-19T10:43:01;20.30;93.80
36450;DHT22;22475;51.390;7.180;2023-09-19T10:45:31;20.30;93.70
36450;DHT22;22475;51.390;7.180;2023-09-19T10:47:58;20.30;93.80
36450;DHT22;22475;51.390;7.180;2023-09-19T10:50:28;20.30;93.90
36450;DHT22;22475;51.390;7.180;2023-09-19T10:53:00;20.30;93.90
36450;DHT22;22475;51.390;7.180;2023-09-19T10:55:31;20.30;93.80
36450;DHT22;22475;51.390;7.180;2023-09-19T10:58:00;20.30;93.80
36450;DHT22;22475;51.390;7.180;2023-09-19T11:00:29;20.30;93.70
36450;DHT22;22475;51.390;7.180;2023-09-19T11:03:19;20.30;93.80
36450;DHT22;22475;51.390;7.180;2023-09-19T11:06:08;20.30;93.80
36450;DHT22;22475;51.390;7.180;2023-09-19T11:08:54;20.30;93.70
36450;DHT22;22475;51.390;7.180;2023-09-19T11:11:40;20.30;93.60
36450;DHT22;22475;51.390;7.180;2023-09-19T11:14:30;20.30;93.60
36450;DHT22;22475;51.390;7.180;2023-09-19T11:17:30;20.30;93.60
36450;DHT22;22475;51.390;7.180;2023-09-19T11:20:22;20.30;93.40
36450;DHT22;22475;51.390;7.180;2023-09-19T11:23:20;20.40;93.30
36450;DHT22;22475;51.390;7.180;2023-09-19T11:25:56;20.30;93.30
36450;DHT22;22475;51.390;7.180;2023-09-19T11:28:44;20.30;93.30
36450;DHT22;22475;51.390;7.180;2023-09-19T11:34:47;20.30;93.50
36450;DHT22;22475;51.390;7.180;2023-09-19T11:40:45;20.30;93.30
36450;DHT22;22475;51.390;7.180;2023-09-19T11:43:38;20.30;93.20
36450;DHT22;22475;51.390;7.180;2023-09-19T11:46:07;20.30;93.20
36450;DHT22;22475;51.390;7.180;2023-09-19T11:48:33;20.30;93.20
36450;DHT22;22475;51.390;7.180;2023-09-19T11:51:11;20.30;93.20
36450;DHT22;22475;51.390;7.180;2023-09-19T11:53:45;20.30;93.20
36450;DHT22;22475;51.390;7.180;2023-09-19T11:56:14;20.30;93.10
36450;DHT22;22475;51.390;7.180;2023-09-19T11:58:43;20.30;93.00
36450;DHT22;22475;51.390;7.180;2023-09-19T12:01:13;20.30;93.10
36450;DHT22;22475;51.390;7.180;2023-09-19T12:03:43;20.30;93.10
36450;DHT22;22475;51.390;7.180;2023-09-19T12:06:14;20.30;93.10
36450;DHT22;22475;51.390;7.180;2023-09-19T12:08:42;20.30;93.20
36450;DHT22;22475;51.390;7.180;2023-09-19T12:11:13;20.30;93.20
36450;DHT22;22475;51.390;7.180;2023-09-19T12:13:44;20.30;93.20
36450;DHT22;22475;51.390;7.180;2023-09-19T12:16:13;20.30;93.00
36450;DHT22;22475;51.390;7.180;2023-09-19T12:18:41;20.40;93.00
36450;DHT22;22475;51.390;7.180;2023-09-19T12:21:23;20.30;93.00
36450;DHT22;22475;51.390;7.180;2023-09-19T12:23:59;20.40;93.10
36450;DHT22;22475;51.390;7.180;2023-09-19T12:26:26;20.30;93.10
36450;DHT22;22475;51.390;7.180;2023-09-19T12:28:54;20.40;93.10
36450;DHT22;22475;51.390;7.180;2023-09-19T12:31:21;20.30;93.10
36450;DHT22;22475;51.390;7.180;2023-09-19T12:33:53;20.30;93.20
36450;DHT22;22475;51.390;7.180;2023-09-19T12:36:22;20.40;93.30
36450;DHT22;22475;51.390;7.180;2023-09-19T12:38:55;20.40;93.30
36450;DHT22;22475;51.390;7.180;2023-09-19T12:41:24;20.40;93.30
36450;DHT22;22475;51.390;7.180;2023-09-19T12:43:51;20.40;93.20
36450;DHT22;22475;51.390;7.180;2023-09-19T12:46:20;20.40;93.10
36450;DHT22;22475;51.390;7.180;2023-09-19T12:49:15;20.40;93.00
36450;DHT22;22475;51.390;7.180;2023-09-19T12:51:44;20.40;93.10
36450;DHT22;22475;51.390;7.180;2023-09-19T12:54:12;20.40;93.20
36450;DHT22;22475;51.390;7.180;2023-09-19T12:56:40;20.40;93.20
36450;DHT22;22475;51.390;7.180;2023-09-19T12:59:10;20.40;93.20
36450;DHT22;22475;51.390;7.180;2023-09-19T13:01:39;20.40;93.20
36450;DHT22;22475;51.390;7.180;2023-09-19T13:04:11;20.40;93.20
36450;DHT22;22475;51.390;7.180;2023-09-19T13:06:38;20.40;93.10
36450;DHT22;22475;51.390;7.180;2023-09-19T13:09:10;20.40;93.10
36450;DHT22;22475;51.390;7.180;2023-09-19T13:11:38;20.40;93.10
36450;DHT22;22475;51.390;7.180;2023-09-19T13:14:20;20.40;93.20
36450;DHT22;22475;51.390;7.180;2023-09-19T13:16:59;20.40;93.10
36450;DHT22;22475;51.390;7.180;2023-09-19T13:19:37;20.40;93.00
36450;DHT22;22475;51.390;7.180;2023-09-19T13:22:05;20.40;93.00
36450;DHT22;22475;51.390;7.180;2023-09-19T13:24:35;20.40;92.90
36450;DHT22;22475;51.390;7.180;2023-09-19T13:27:05;20.40;92.80
36450;DHT22;22475;51.390;7.180;2023-09-19T13:29:32;20.40;93.00
36450;DHT22;22475;51.390;7.180;2023-09-19T13:31:59;20.40;93.10
36450;DHT22;22475;51.390;7.180;2023-09-19T13:34:26;20.40;93.10
36450;DHT22;22475;51.390;7.180;2023-09-19T13:36:54;20.40;93.10
36450;DHT22;22475;51.390;7.180;2023-09-19T13:39:21;20.40;93.10
36450;DHT22;22475;51.390;7.180;2023-09-19T13:41:54;20.40;93.10
36450;DHT22;22475;51.390;7.180;2023-09-19T13:44:21;20.40;93.00
36450;DHT22;22475;51.390;7.180;2023-09-19T13:46:48;20.50;93.10
36450;DHT22;22475;51.390;7.180;2023-09-19T13:49:16;20.40;93.00
36450;DHT22;22475;51.390;7.180;2023-09-19T13:51:43;20.40;93.10
36450;DHT22;22475;51.390;7.180;2023-09-19T13:54:10;20.40;93.10
36450;DHT22;22475;51.390;7.180;2023-09-19T13:56:37;20.50;93.10
36450;DHT22;22475;51.390;7.180;2023-09-19T13:59:05;20.40;92.90
36450;DHT22;22475;51.390;7.180;2023-09-19T14:01:32;20.40;93.00
36450;DHT22;22475;51.390;7.180;2023-09-19T14:03:59;20.40;93.10
36450;DHT22;22475;51.390;7.180;2023-09-19T14:06:26;20.40;93.00
36450;DHT22;22475;51.390;7.180;2023-09-19T14:08:52;20.40;93.00
36450;DHT22;22475;51.390;7.180;2023-09-19T14:11:19;20.40;92.80
36450;DHT22;22475;51.390;7.180;2023-09-19T14:13:46;20.40;92.90
36450;DHT22;22475;51.390;7.180;2023-09-19T14:16:16;20.50;92.90
36450;DHT22;22475;51.390;7.180;2023-09-19T14:18:44;20.40;92.90
36450;DHT22;22475;51.390;7.180;2023-09-19T14:21:11;20.40;92.90
36450;DHT22;22475;51.390;7.180;2023-09-19T14:23:38;20.40;92.90
36450;DHT22;22475;51.390;7.180;2023-09-19T14:26:05;20.40;92.70
36450;DHT22;22475;51.390;7.180;2023-09-19T14:28:32;20.40;92.60
36450;DHT22;22475;51.390;7.180;2023-09-19T14:31:04;20.40;92.70
36450;DHT22;22475;51.390;7.180;2023-09-19T14:33:32;20.40;92.70
36450;DHT22;22475;51.390;7.180;2023-09-19T14:36:02;20.50;92.80
36450;DHT22;22475;51.390;7.180;2023-09-19T14:38:31;20.40;92.80
36450;DHT22;22475;51.390;7.180;2023-09-19T14:40:59;20.40;92.80
36450;DHT22;22475;51.390;7.180;2023-09-19T14:43:26;20.40;92.80
36450;DHT22;22475;51.390;7.180;2023-09-19T14:45:54;20.50;92.90
36450;DHT22;22475;51.390;7.180;2023-09-19T14:48:22;20.50;92.90
36450;DHT22;22475;51.390;7.180;2023-09-19T14:50:52;20.40;92.80
36450;DHT22;22475;51.390;7.180;2023-09-19T14:53:20;20.50;92.80
36450;DHT22;22475;51.390;7.180;2023-09-19T14:55:47;20.40;92.80
36450;DHT22;22475;51.390;7.180;2023-09-19T14:58:17;20.50;92.80
36450;DHT22;22475;51.390;7.180;2023-09-19T15:00:44;20.40;92.70
36450;DHT22;22475;51.390;7.180;2023-09-19T15:03:11;20.40;92.60
36450;DHT22;22475;51.390;7.180;2023-09-19T15:05:39;20.40;92.60
36450;DHT22;22475;51.390;7.180;2023-09-19T15:08:07;20.40;92.70
36450;DHT22;22475;51.390;7.180;2023-09-19T15:10:34;20.40;92.60
36450;DHT22;22475;51.390;7.180;2023-09-19T15:13:00;20.40;92.50
36450;DHT22;22475;51.390;7.180;2023-09-19T15:15:27;20.40;92.50
36450;DHT22;22475;51.390;7.180;2023-09-19T15:17:54;20.40;92.50
36450;DHT22;22475;51.390;7.180;2023-09-19T15:20:20;20.40;92.60
36450;DHT22;22475;51.390;7.180;2023-09-19T15:22:47;20.40;92.60
36450;DHT22;22475;51.390;7.180;2023-09-19T15:25:16;20.40;92.50
36450;DHT22;22475;51.390;7.180;2023-09-19T15:27:43;20.40;92.40
36450;DHT22;22475;51.390;7.180;2023-09-19T15:30:11;20.40;92.40
36450;DHT22;22475;51.390;7.180;2023-09-19T15:32:40;20.40;92.50
36450;DHT22;22475;51.390;7.180;2023-09-19T15:35:08;20.50;92.60
36450;DHT22;22475;51.390;7.180;2023-09-19T15:37:37;20.40;92.70
36450;DHT22;22475;51.390;7.180;2023-09-19T15:40:04;20.40;92.60
36450;DHT22;22475;51.390;7.180;2023-09-19T15:42:35;20.40;93.00
36450;DHT22;22475;51.390;7.180;2023-09-19T15:45:02;20.50;92.70
36450;DHT22;22475;51.390;7.180;2023-09-19T15:47:29;20.50;92.60
36450;DHT22;22475;51.390;7.180;2023-09-19T15:49:56;20.40;92.50
36450;DHT22;22475;51.390;7.180;2023-09-19T15:52:23;20.40;92.60